Time;durP1;ratioP1;P1;durP2;ratioP2;P2;SDS_P1;SDS_P2;PMS_P1;PMS_P2;Temp;Humidity;BMP_temperature;BMP_pressure;BME280_temperature;BME280_humidity;BME280_pressure;Samples;Min_cycle;Max_cycle;Signal;HPM_P1;HPM_P2
2023/08/10 00:00:11;;;;;;;2.17;1.17;;;;;;;;;;2533104;23;19998;-93
2023/08/10 00:01:12;;;;;;;1.30;1.00;;;;;;;;;;2538992;23;20479;-93
2023/08/10 00:02:13;;;;;;;1.10;1.00;;;;;;;;;;2549436;23;19994;-92
2023/08/10 00:03:14;;;;;;;3.65;1.48;;;;;;;;;;2545371;23;20001;-92
2023/08/10 00:04:14;;;;;;;1.20;1.10;;;;;;;;;;2545595;23;20459;-93
2023/08/10 00:05:15;;;;;;;1.73;1.10;;;;;;;;;;2545140;23;20067;-93
2023/08/10 00:06:15;;;;;;;1.92;1.23;;;;;;;;;;2550216;23;20324;-92
2023/08/10 00:07:16;;;;;;;1.50;1.05;;;;;;;;;;2561515;23;20069;-92
2023/08/10 00:08:16;;;;;;;1.27;1.17;;;;;;;;;;2572786;22;20059;-92
2023/08/10 00:09:17;;;;;;;3.08;1.20;;;;;;;;;;2556468;23;19998;-91
2023/08/10 00:10:17;;;;;;;1.40;1.00;;;;;;;;;;2555655;23;19990;-91
2023/08/10 00:11:18;;;;;;;1.75;1.17;;;;;;;;;;2544959;23;20091;-90
2023/08/10 00:12:18;;;;;;;2.17;1.20;;;;;;;;;;2561539;23;20000;-91
2023/08/10 00:13:19;;;;;;;1.48;1.35;;;;;;;;;;2545468;23;20004;-92
2023/08/10 00:14:19;;;;;;;1.50;1.40;;;;;;;;;;2535283;23;20025;-92
2023/08/10 00:15:19;;;;;;;1.13;1.00;;;;;;;;;;2535973;23;20074;-91
2023/08/10 00:16:20;;;;;;;2.15;1.27;;;;;;;;;;2540071;23;20002;-92
2023/08/10 00:17:20;;;;;;;2.20;1.55;;;;;;;;;;2555130;23;19993;-92
2023/08/10 00:18:21;;;;;;;2.20;1.35;;;;;;;;;;2557532;23;20483;-91
2023/08/10 00:19:21;;;;;;;2.03;1.63;;;;;;;;;;2544434;23;20076;-91
2023/08/10 00:20:22;;;;;;;1.70;1.38;;;;;;;;;;2549733;23;20316;-90
2023/08/10 00:21:22;;;;;;;2.42;1.67;;;;;;;;;;2551082;23;19993;-91
2023/08/10 00:22:23;;;;;;;2.20;1.45;;;;;;;;;;2545998;23;19998;-90
2023/08/10 00:23:23;;;;;;;2.53;1.45;;;;;;;;;;2533350;23;20065;-91
2023/08/10 00:24:24;;;;;;;2.58;1.80;;;;;;;;;;2532846;23;20006;-92
2023/08/10 00:25:24;;;;;;;3.47;2.17;;;;;;;;;;2532790;23;19994;-92
2023/08/10 00:26:25;;;;;;;3.03;1.98;;;;;;;;;;2532513;23;20362;-91
2023/08/10 00:27:25;;;;;;;2.22;1.60;;;;;;;;;;2549171;23;19997;-91
2023/08/10 00:28:26;;;;;;;2.35;1.90;;;;;;;;;;2551472;23;20347;-91
2023/08/10 00:29:26;;;;;;;3.80;2.00;;;;;;;;;;2549495;23;19981;-92
2023/08/10 00:30:28;;;;;;;3.10;2.00;;;;;;;;;;2543909;23;20061;-92
2023/08/10 00:31:28;;;;;;;2.95;2.00;;;;;;;;;;2552138;23;20013;-93
2023/08/10 00:32:29;;;;;;;4.65;2.53;;;;;;;;;;2108776;23;10312095;-92
2023/08/10 00:33:30;;;;;;;5.22;2.83;;;;;;;;;;2533901;23;20014;-93
2023/08/10 00:34:31;;;;;;;4.60;2.30;;;;;;;;;;2533293;23;19994;-93
2023/08/10 00:35:31;;;;;;;7.55;4.32;;;;;;;;;;2545261;23;20481;-93
2023/08/10 00:36:31;;;;;;;5.78;4.75;;;;;;;;;;2532870;23;20025;-92
2023/08/10 00:37:32;;;;;;;6.25;4.65;;;;;;;;;;2533638;23;20006;-93
2023/08/10 00:38:40;;;;;;;6.70;3.95;;;;;;;;;;2533604;23;20000;-93
2023/08/10 00:39:40;;;;;;;5.13;3.80;;;;;;;;;;2534446;23;20360;-92
2023/08/10 00:40:41;;;;;;;6.22;3.63;;;;;;;;;;2533184;23;19993;-92
2023/08/10 00:41:42;;;;;;;7.97;4.20;;;;;;;;;;2545192;23;20054;-93
2023/08/10 00:42:42;;;;;;;6.20;3.80;;;;;;;;;;2544585;23;19994;-93
2023/08/10 00:43:42;;;;;;;4.90;4.30;;;;;;;;;;2544650;23;20032;-92
2023/08/10 00:44:43;;;;;;;8.98;5.07;;;;;;;;;;2544555;23;20000;-91
2023/08/10 00:45:44;;;;;;;7.10;4.70;;;;;;;;;;2548735;23;20024;-92
2023/08/10 00:46:46;;;;;;;7.30;4.68;;;;;;;;;;2549848;23;19993;-93
2023/08/10 00:47:46;;;;;;;7.03;5.03;;;;;;;;;;2544644;23;20139;-92
2023/08/10 00:48:47;;;;;;;7.97;5.00;;;;;;;;;;2532634;23;20061;-92
2023/08/10 00:49:47;;;;;;;6.50;5.00;;;;;;;;;;2532635;23;19994;-94
2023/08/10 00:50:49;;;;;;;9.00;5.00;;;;;;;;;;2544279;23;20068;-93
2023/08/10 00:51:50;;;;;;;6.78;4.85;;;;;;;;;;2549083;23;20064;-93
2023/08/10 00:52:53;;;;;;;11.20;4.72;;;;;;;;;;2549554;23;19989;-92
2023/08/10 00:53:54;;;;;;;6.53;4.18;;;;;;;;;;2549655;23;20049;-92
2023/08/10 00:54:54;;;;;;;5.38;4.38;;;;;;;;;;2544474;23;20029;-93
2023/08/10 00:55:56;;;;;;;10.35;4.95;;;;;;;;;;2548702;23;20001;-92
2023/08/10 00:56:57;;;;;;;9.02;5.32;;;;;;;;;;2549497;23;20068;-93
2023/08/10 00:57:59;;;;;;;9.18;4.70;;;;;;;;;;2544625;23;20005;-93
2023/08/10 00:59:02;;;;;;;7.55;4.50;;;;;;;;;;2549267;23;20020;-96
2023/08/10 01:00:10;;;;;;;9.75;4.93;;;;;;;;;;2538102;23;20163;-96
2023/08/10 01:01:12;;;;;;;8.13;4.80;;;;;;;;;;2516837;23;19999;-96
2023/08/10 01:02:12;;;;;;;6.40;4.82;;;;;;;;;;2526378;23;20483;-92
2023/08/10 01:03:13;;;;;;;8.68;4.90;;;;;;;;;;2549717;23;20095;-93
2023/08/10 01:04:14;;;;;;;9.48;5.40;;;;;;;;;;2549575;23;20463;-92
2023/08/10 01:05:14;;;;;;;12.80;5.78;;;;;;;;;;2544565;23;20025;-92
2023/08/10 01:06:29;;;;;;;8.10;5.05;;;;;;;;;;2532349;23;20006;-92
2023/08/10 01:07:43;;;;;;;8.63;5.03;;;;;;;;;;2549195;23;19997;-92
2023/08/10 01:08:50;;;;;;;7.80;5.07;;;;;;;;;;2549480;23;20454;-92
2023/08/10 01:10:04;;;;;;;6.50;4.50;;;;;;;;;;2554188;23;19990;-96
2023/08/10 01:11:29;;;;;;;8.45;5.70;;;;;;;;;;2552145;23;20033;-96
2023/08/10 01:12:49;;;;;;;14.80;4.82;;;;;;;;;;2553352;23;19994;-96
2023/08/10 01:14:03;;;;;;;7.23;4.90;;;;;;;;;;2113250;23;10253076;-93
2023/08/10 01:15:16;;;;;;;9.88;4.72;;;;;;;;;;2544628;23;20045;-91
2023/08/10 01:16:19;;;;;;;8.68;4.80;;;;;;;;;;2542025;23;20000;-92
2023/08/10 01:17:27;;;;;;;8.13;4.75;;;;;;;;;;2544420;23;20025;-92
2023/08/10 01:18:28;;;;;;;6.60;4.93;;;;;;;;;;2545687;23;20076;-92
2023/08/10 01:19:36;;;;;;;9.27;4.93;;;;;;;;;;2543245;23;20070;-92
2023/08/10 01:20:37;;;;;;;6.43;4.18;;;;;;;;;;2539995;23;20056;-93
2023/08/10 01:21:48;;;;;;;9.95;4.55;;;;;;;;;;2549173;23;19997;-93
2023/08/10 01:23:06;;;;;;;11.27;4.25;;;;;;;;;;2551151;23;20001;-92
2023/08/10 01:24:19;;;;;;;5.72;4.65;;;;;;;;;;2545242;23;20064;-92
2023/08/10 01:25:21;;;;;;;6.07;4.07;;;;;;;;;;2535469;23;20002;-92
2023/08/10 01:26:26;;;;;;;7.50;4.38;;;;;;;;;;2544637;23;20383;-91
2023/08/10 01:27:28;;;;;;;6.90;4.60;;;;;;;;;;2544775;23;19998;-92
2023/08/10 01:28:32;;;;;;;6.50;4.25;;;;;;;;;;2532707;23;20002;-92
2023/08/10 01:29:33;;;;;;;8.63;4.68;;;;;;;;;;2533999;23;19990;-92
2023/08/10 01:30:34;;;;;;;7.35;5.10;;;;;;;;;;2532858;23;20001;-93
2023/08/10 01:31:35;;;;;;;6.18;4.20;;;;;;;;;;2549060;23;20424;-93
2023/08/10 01:32:35;;;;;;;6.60;4.72;;;;;;;;;;2545903;23;20008;-93
2023/08/10 01:33:36;;;;;;;5.70;4.60;;;;;;;;;;2542485;23;20016;-92
2023/08/10 01:34:39;;;;;;;5.38;4.88;;;;;;;;;;2556064;23;20009;-92
2023/08/10 01:35:40;;;;;;;7.13;4.25;;;;;;;;;;2560576;23;20044;-92
2023/08/10 01:36:53;;;;;;;7.60;4.28;;;;;;;;;;2557437;23;19986;-93
2023/08/10 01:38:01;;;;;;;5.05;3.90;;;;;;;;;;2549828;23;20028;-93
2023/08/10 01:39:03;;;;;;;5.85;3.38;;;;;;;;;;2542315;23;20372;-92
2023/08/10 01:43:46;;;;;;;4.68;2.08;;;;;;;;;;2521528;23;19920;-92
2023/08/10 01:44:47;;;;;;;3.17;1.70;;;;;;;;;;2536057;23;20006;-94
2023/08/10 01:46:09;;;;;;;2.72;1.90;;;;;;;;;;2536539;23;20373;-91
2023/08/10 01:48:57;;;;;;;3.55;1.70;;;;;;;;;;2526184;23;20014;-93
2023/08/10 01:50:07;;;;;;;3.75;1.80;;;;;;;;;;2550464;23;19997;-92
2023/08/10 01:51:17;;;;;;;5.03;1.90;;;;;;;;;;2543837;23;20017;-92
2023/08/10 01:52:28;;;;;;;2.97;2.00;;;;;;;;;;2510203;23;19995;-92
2023/08/10 01:53:32;;;;;;;1.73;1.63;;;;;;;;;;2527159;23;19991;-92
2023/08/10 01:54:36;;;;;;;3.85;2.00;;;;;;;;;;2527611;23;20049;-92
2023/08/10 01:55:41;;;;;;;3.35;1.80;;;;;;;;;;2538717;23;20060;-93
2023/08/10 01:56:43;;;;;;;2.42;1.40;;;;;;;;;;2539295;23;20053;-93
2023/08/10 01:57:45;;;;;;;2.83;1.73;;;;;;;;;;2549532;23;20423;-93
2023/08/10 01:58:45;;;;;;;4.50;1.92;;;;;;;;;;2532858;23;20052;-92
2023/08/10 01:59:46;;;;;;;4.10;1.83;;;;;;;;;;2521096;23;20006;-92
2023/08/10 02:00:46;;;;;;;2.75;1.80;;;;;;;;;;2520885;23;19994;-94
2023/08/10 02:01:47;;;;;;;2.13;1.70;;;;;;;;;;2533386;23;20004;-93
2023/08/10 02:02:47;;;;;;;2.97;1.58;;;;;;;;;;2549564;23;20000;-90
2023/08/10 02:03:48;;;;;;;3.92;1.92;;;;;;;;;;2532609;23;20089;-90
2023/08/10 02:04:48;;;;;;;2.35;1.80;;;;;;;;;;2528457;23;20066;-92
2023/08/10 02:05:49;;;;;;;3.05;1.60;;;;;;;;;;2531393;23;19991;-91
2023/08/10 02:06:49;;;;;;;3.42;2.03;;;;;;;;;;2526331;23;20017;-92
2023/08/10 02:07:50;;;;;;;2.83;2.28;;;;;;;;;;2532937;23;20055;-92
2023/08/10 02:08:50;;;;;;;4.43;1.98;;;;;;;;;;2520356;23;19991;-93
2023/08/10 02:09:51;;;;;;;3.17;1.75;;;;;;;;;;2520557;23;20024;-91
2023/08/10 02:10:51;;;;;;;5.00;2.00;;;;;;;;;;2520570;23;20029;-92
2023/08/10 02:11:52;;;;;;;2.58;1.67;;;;;;;;;;2520288;23;20033;-91
2023/08/10 02:12:52;;;;;;;5.75;1.80;;;;;;;;;;2520190;23;20018;-92
2023/08/10 02:13:53;;;;;;;2.47;1.95;;;;;;;;;;2520257;23;20547;-92
2023/08/10 02:14:58;;;;;;;2.70;1.92;;;;;;;;;;2536537;23;20455;-92
2023/08/10 02:15:59;;;;;;;2.63;2.42;;;;;;;;;;2549848;23;19997;-92
2023/08/10 02:16:59;;;;;;;3.22;1.50;;;;;;;;;;2532510;23;20021;-93
2023/08/10 02:18:00;;;;;;;3.90;1.70;;;;;;;;;;2089287;23;10250923;-92
2023/08/10 02:19:01;;;;;;;2.53;1.63;;;;;;;;;;2520459;23;20002;-93
2023/08/10 02:20:04;;;;;;;3.83;1.60;;;;;;;;;;2536689;23;20535;-92
2023/08/10 02:21:05;;;;;;;2.13;1.63;;;;;;;;;;2549988;23;19998;-93
2023/08/10 02:22:06;;;;;;;3.50;1.75;;;;;;;;;;2526981;23;20373;-92
2023/08/10 02:23:06;;;;;;;5.95;2.03;;;;;;;;;;2060879;23;10000914;-94
2023/08/10 02:24:08;;;;;;;2.60;1.27;;;;;;;;;;2508942;23;20009;-93
2023/08/10 02:25:09;;;;;;;2.17;1.70;;;;;;;;;;2530941;23;20001;-92
2023/08/10 02:26:10;;;;;;;1.33;1.23;;;;;;;;;;2549564;23;20128;-92
2023/08/10 02:27:10;;;;;;;3.75;1.55;;;;;;;;;;2538344;23;20044;-93
2023/08/10 02:28:12;;;;;;;2.15;1.40;;;;;;;;;;2533443;23;20468;-91
2023/08/10 02:29:13;;;;;;;1.42;1.33;;;;;;;;;;2546606;23;19997;-92
2023/08/10 02:30:15;;;;;;;1.42;1.33;;;;;;;;;;2548428;23;20000;-94
2023/08/10 02:31:16;;;;;;;4.22;1.33;;;;;;;;;;2543252;23;20023;-93
2023/08/10 02:32:17;;;;;;;1.98;1.05;;;;;;;;;;2542275;23;20009;-93
2023/08/10 02:33:17;;;;;;;2.70;1.73;;;;;;;;;;2532480;23;20085;-94
2023/08/10 02:34:17;;;;;;;2.20;1.30;;;;;;;;;;2537194;23;19998;-94
2023/08/10 02:35:18;;;;;;;1.45;1.20;;;;;;;;;;2532227;23;20140;-93
2023/08/10 02:36:19;;;;;;;3.30;1.52;;;;;;;;;;2519807;23;20413;-93
2023/08/10 02:37:20;;;;;;;4.35;1.88;;;;;;;;;;2520240;23;20002;-93
2023/08/10 02:38:20;;;;;;;2.88;1.40;;;;;;;;;;2519845;23;20077;-94
2023/08/10 02:39:21;;;;;;;1.45;1.25;;;;;;;;;;2519942;23;20133;-93
2023/08/10 02:40:21;;;;;;;7.57;1.60;;;;;;;;;;2515929;23;20161;-94
2023/08/10 02:41:22;;;;;;;1.48;1.23;;;;;;;;;;2533033;23;20002;-94
2023/08/10 02:42:22;;;;;;;2.15;1.67;;;;;;;;;;2532065;23;19998;-93
2023/08/10 02:43:26;;;;;;;3.72;2.05;;;;;;;;;;2520054;23;20026;-93
2023/08/10 02:44:27;;;;;;;1.50;1.40;;;;;;;;;;2536947;23;19998;-94
2023/08/10 02:45:27;;;;;;;1.30;1.20;;;;;;;;;;2531967;23;20026;-94
2023/08/10 02:46:28;;;;;;;3.90;1.80;;;;;;;;;;2520176;23;20081;-93
2023/08/10 02:47:28;;;;;;;4.70;1.38;;;;;;;;;;2532195;23;20001;-94
2023/08/10 02:48:29;;;;;;;2.08;1.30;;;;;;;;;;2520077;23;20006;-95
2023/08/10 02:49:29;;;;;;;1.50;1.40;;;;;;;;;;2519884;23;20344;-93
2023/08/10 02:50:29;;;;;;;2.33;1.50;;;;;;;;;;2525419;23;20029;-93
2023/08/10 02:51:30;;;;;;;1.90;1.40;;;;;;;;;;2552561;23;20054;-94
2023/08/10 02:52:30;;;;;;;2.22;1.35;;;;;;;;;;2543894;23;19986;-94
2023/08/10 02:53:31;;;;;;;1.83;1.10;;;;;;;;;;2527847;23;20006;-93
2023/08/10 02:54:31;;;;;;;2.83;1.40;;;;;;;;;;2532488;23;20429;-93
2023/08/10 02:55:32;;;;;;;2.13;1.67;;;;;;;;;;2520615;23;19998;-94
2023/08/10 02:56:33;;;;;;;1.35;1.10;;;;;;;;;;2520140;23;20360;-94
2023/08/10 02:57:33;;;;;;;1.30;1.13;;;;;;;;;;2520120;23;20081;-94
2023/08/10 02:58:35;;;;;;;4.70;1.40;;;;;;;;;;2536266;23;20344;-94
2023/08/10 02:59:35;;;;;;;2.10;1.45;;;;;;;;;;2549510;23;20001;-94
2023/08/10 03:00:37;;;;;;;2.13;1.48;;;;;;;;;;2549597;23;20286;-93
2023/08/10 03:01:37;;;;;;;1.80;1.60;;;;;;;;;;2532330;23;19990;-94
2023/08/10 03:02:39;;;;;;;5.75;1.58;;;;;;;;;;2536377;23;19998;-94
2023/08/10 03:03:39;;;;;;;3.00;1.65;;;;;;;;;;2106500;23;10074478;-93
2023/08/10 03:04:40;;;;;;;2.40;1.50;;;;;;;;;;2520052;23;20007;-93
2023/08/10 03:05:41;;;;;;;2.47;1.45;;;;;;;;;;2519950;23;19991;-93
2023/08/10 03:06:41;;;;;;;1.70;1.20;;;;;;;;;;2519650;23;20061;-93
2023/08/10 03:07:42;;;;;;;1.77;1.27;;;;;;;;;;2520126;23;20022;-93
2023/08/10 03:08:43;;;;;;;1.83;1.67;;;;;;;;;;2532824;23;20002;-93
2023/08/10 03:09:44;;;;;;;2.60;1.73;;;;;;;;;;2532211;23;20042;-93
2023/08/10 03:10:45;;;;;;;2.70;1.50;;;;;;;;;;2532646;23;20523;-93
2023/08/10 03:11:45;;;;;;;1.95;1.50;;;;;;;;;;2532273;23;19994;-94
2023/08/10 03:12:46;;;;;;;1.73;1.58;;;;;;;;;;2536264;23;20082;-94
2023/08/10 03:13:46;;;;;;;2.55;1.65;;;;;;;;;;2532261;23;20009;-93
2023/08/10 03:14:47;;;;;;;3.97;1.70;;;;;;;;;;2537006;23;20439;-93
2023/08/10 03:15:47;;;;;;;4.53;1.48;;;;;;;;;;2534367;23;20497;-93
2023/08/10 03:16:48;;;;;;;4.20;1.52;;;;;;;;;;2551380;23;20445;-93
2023/08/10 03:17:49;;;;;;;2.10;1.70;;;;;;;;;;2532081;23;20001;-94
2023/08/10 03:18:49;;;;;;;3.30;1.77;;;;;;;;;;2520090;23;20354;-94
2023/08/10 03:19:51;;;;;;;2.50;1.65;;;;;;;;;;2520179;23;20516;-93
2023/08/10 03:20:51;;;;;;;1.48;1.38;;;;;;;;;;2532430;23;20105;-93
2023/08/10 03:21:51;;;;;;;1.85;1.40;;;;;;;;;;2532351;23;20001;-92
2023/08/10 03:22:52;;;;;;;1.85;1.67;;;;;;;;;;2520337;23;20010;-93
2023/08/10 03:23:52;;;;;;;2.38;1.40;;;;;;;;;;2520415;23;19999;-93
2023/08/10 03:24:53;;;;;;;1.73;1.42;;;;;;;;;;2520240;23;20401;-93
2023/08/10 03:25:54;;;;;;;3.25;2.03;;;;;;;;;;2536135;23;20440;-93
2023/08/10 03:26:54;;;;;;;2.33;1.38;;;;;;;;;;2549468;23;20068;-94
2023/08/10 03:27:55;;;;;;;1.92;1.50;;;;;;;;;;2549094;23;20068;-95
2023/08/10 03:28:55;;;;;;;3.45;1.90;;;;;;;;;;2532664;23;20092;-94
2023/08/10 03:29:56;;;;;;;3.97;1.52;;;;;;;;;;2536450;23;19994;-95
2023/08/10 03:30:56;;;;;;;2.03;1.83;;;;;;;;;;2549556;23;20439;-94
2023/08/10 03:31:57;;;;;;;2.88;2.15;;;;;;;;;;2532414;23;20076;-94
2023/08/10 03:32:57;;;;;;;3.15;1.63;;;;;;;;;;2520636;23;20026;-93
2023/08/10 03:33:57;;;;;;;2.22;1.70;;;;;;;;;;2534898;23;20021;-95
2023/08/10 03:34:59;;;;;;;3.38;1.55;;;;;;;;;;2532377;23;20547;-95
2023/08/10 03:36:01;;;;;;;2.67;1.63;;;;;;;;;;2520182;23;20074;-95
2023/08/10 03:37:02;;;;;;;2.00;1.80;;;;;;;;;;2532270;23;19998;-94
2023/08/10 03:38:03;;;;;;;3.40;1.70;;;;;;;;;;2508079;23;20014;-94
2023/08/10 03:39:05;;;;;;;3.20;1.90;;;;;;;;;;2511797;23;20065;-94
2023/08/10 03:40:07;;;;;;;2.97;1.67;;;;;;;;;;2532187;23;20004;-93
2023/08/10 03:41:08;;;;;;;2.53;1.83;;;;;;;;;;2527999;23;20049;-92
2023/08/10 03:42:08;;;;;;;3.33;1.70;;;;;;;;;;2532325;23;20026;-92
2023/08/10 03:43:08;;;;;;;2.33;1.58;;;;;;;;;;2532469;23;19998;-92
2023/08/10 03:44:09;;;;;;;5.25;2.22;;;;;;;;;;2536628;23;19998;-92
2023/08/10 03:45:09;;;;;;;4.82;1.85;;;;;;;;;;2532743;23;20025;-91
2023/08/10 03:46:10;;;;;;;2.97;2.00;;;;;;;;;;2533524;23;20408;-93
2023/08/10 03:47:11;;;;;;;3.05;1.70;;;;;;;;;;2532886;23;19997;-93
2023/08/10 03:48:12;;;;;;;3.17;1.77;;;;;;;;;;2533212;23;20009;-93
2023/08/10 03:49:13;;;;;;;2.95;1.60;;;;;;;;;;2526022;23;20009;-92
2023/08/10 03:50:16;;;;;;;3.05;1.45;;;;;;;;;;2539048;23;20568;-95
2023/08/10 03:51:17;;;;;;;2.85;1.98;;;;;;;;;;2553249;23;20001;-94
2023/08/10 03:52:17;;;;;;;4.55;1.90;;;;;;;;;;2541935;23;20062;-95
2023/08/10 03:53:19;;;;;;;6.43;2.10;;;;;;;;;;2539543;23;20017;-96
2023/08/10 03:54:19;;;;;;;4.40;1.70;;;;;;;;;;2532530;23;20008;-92
2023/08/10 03:55:20;;;;;;;4.68;1.92;;;;;;;;;;2537286;23;20081;-92
2023/08/10 03:56:21;;;;;;;3.22;2.00;;;;;;;;;;2533861;23;20497;-94
2023/08/10 03:57:22;;;;;;;3.95;2.25;;;;;;;;;;2521566;23;20443;-95
2023/08/10 03:58:22;;;;;;;6.57;2.47;;;;;;;;;;2533347;23;20005;-93
2023/08/10 03:59:22;;;;;;;4.18;1.80;;;;;;;;;;2521035;23;20029;-95
2023/08/10 04:00:23;;;;;;;4.75;2.03;;;;;;;;;;2520714;23;20034;-94
2023/08/10 04:01:23;;;;;;;4.53;2.40;;;;;;;;;;2520984;23;19999;-93
2023/08/10 04:02:24;;;;;;;3.13;2.63;;;;;;;;;;2520566;23;20445;-91
2023/08/10 04:03:24;;;;;;;5.28;2.75;;;;;;;;;;2520763;23;20010;-93
2023/08/10 04:04:25;;;;;;;5.68;2.10;;;;;;;;;;2520742;23;19999;-92
2023/08/10 04:05:27;;;;;;;9.73;2.25;;;;;;;;;;2520805;23;19998;-91
2023/08/10 04:06:27;;;;;;;4.20;1.70;;;;;;;;;;2521484;23;20002;-92
2023/08/10 04:07:27;;;;;;;2.30;2.10;;;;;;;;;;2520972;23;20002;-92
2023/08/10 04:08:28;;;;;;;3.58;2.03;;;;;;;;;;2532856;23;20456;-92
2023/08/10 04:09:29;;;;;;;7.18;3.33;;;;;;;;;;2534392;23;20012;-94
2023/08/10 04:10:29;;;;;;;3.25;1.73;;;;;;;;;;2549460;23;20427;-95
2023/08/10 04:11:30;;;;;;;4.43;2.50;;;;;;;;;;2533023;23;20033;-94
2023/08/10 04:12:30;;;;;;;4.18;2.10;;;;;;;;;;2533407;23;19998;-93
2023/08/10 04:13:31;;;;;;;4.53;1.88;;;;;;;;;;2541638;23;20001;-91
2023/08/10 04:14:32;;;;;;;4.50;1.95;;;;;;;;;;2545478;23;20165;-92
2023/08/10 04:15:32;;;;;;;2.50;2.08;;;;;;;;;;2530312;23;20002;-92
2023/08/10 04:16:33;;;;;;;6.53;2.15;;;;;;;;;;2530706;23;19991;-92
2023/08/10 04:17:33;;;;;;;2.83;2.22;;;;;;;;;;2532220;23;20034;-92
2023/08/10 04:18:34;;;;;;;2.72;2.15;;;;;;;;;;2532291;23;19994;-93
2023/08/10 04:19:35;;;;;;;4.00;2.03;;;;;;;;;;2530903;23;20078;-93
2023/08/10 04:20:35;;;;;;;6.00;2.00;;;;;;;;;;2520577;23;20002;-93
2023/08/10 04:21:36;;;;;;;5.38;2.22;;;;;;;;;;2520711;23;19998;-94
2023/08/10 04:22:36;;;;;;;3.03;2.03;;;;;;;;;;2532707;23;20369;-93
2023/08/10 04:23:37;;;;;;;5.40;2.33;;;;;;;;;;2520801;23;20278;-92
2023/08/10 04:24:37;;;;;;;2.88;1.83;;;;;;;;;;2536889;23;20111;-94
2023/08/10 04:25:38;;;;;;;2.85;2.55;;;;;;;;;;2532689;23;20017;-92
2023/08/10 04:26:39;;;;;;;3.28;2.30;;;;;;;;;;2521572;23;20077;-93
2023/08/10 04:27:40;;;;;;;3.15;2.00;;;;;;;;;;2547210;23;20053;-93
2023/08/10 04:28:41;;;;;;;2.75;2.03;;;;;;;;;;2543108;23;20073;-92
2023/08/10 04:29:46;;;;;;;2.60;2.38;;;;;;;;;;2533512;23;20005;-93
2023/08/10 04:30:47;;;;;;;4.55;2.53;;;;;;;;;;2549918;23;19989;-95
2023/08/10 04:31:47;;;;;;;4.72;2.50;;;;;;;;;;2532739;23;20005;-93
2023/08/10 04:32:48;;;;;;;3.70;2.25;;;;;;;;;;2520824;23;20390;-94
2023/08/10 04:33:49;;;;;;;4.63;2.45;;;;;;;;;;2537145;23;20480;-94
2023/08/10 04:34:51;;;;;;;4.40;2.53;;;;;;;;;;2532937;23;19997;-92
2023/08/10 04:35:52;;;;;;;3.97;2.20;;;;;;;;;;2521301;23;20001;-93
2023/08/10 04:36:53;;;;;;;3.13;2.10;;;;;;;;;;2521237;23;20472;-92
2023/08/10 04:37:53;;;;;;;3.33;2.17;;;;;;;;;;2520945;23;19998;-93
2023/08/10 04:38:54;;;;;;;5.63;2.30;;;;;;;;;;2520632;23;20359;-93
2023/08/10 04:39:54;;;;;;;3.13;2.08;;;;;;;;;;2521062;23;20006;-94
2023/08/10 04:40:54;;;;;;;4.72;2.50;;;;;;;;;;2520886;23;19998;-94
2023/08/10 04:41:56;;;;;;;4.47;2.50;;;;;;;;;;2520945;23;20007;-92
2023/08/10 04:42:59;;;;;;;4.32;2.30;;;;;;;;;;2537061;23;20091;-93
2023/08/10 04:43:59;;;;;;;4.57;3.10;;;;;;;;;;2532870;23;20006;-93
2023/08/10 04:44:59;;;;;;;4.22;2.30;;;;;;;;;;2533004;23;20002;-93
2023/08/10 04:46:00;;;;;;;4.47;2.42;;;;;;;;;;2540916;23;20013;-93
2023/08/10 04:47:00;;;;;;;4.75;2.78;;;;;;;;;;2531175;23;20022;-93
2023/08/10 04:48:01;;;;;;;4.85;2.58;;;;;;;;;;2547520;23;20067;-93
2023/08/10 04:49:01;;;;;;;4.32;2.90;;;;;;;;;;2543014;23;20080;-93
2023/08/10 04:50:03;;;;;;;4.40;2.55;;;;;;;;;;2531050;23;20033;-93
2023/08/10 04:51:04;;;;;;;3.22;2.33;;;;;;;;;;2531881;23;20037;-94
2023/08/10 04:52:05;;;;;;;3.65;2.63;;;;;;;;;;2531801;23;19997;-93
2023/08/10 04:53:05;;;;;;;4.50;3.28;;;;;;;;;;2531837;23;20013;-94
2023/08/10 04:59:10;;;;;;;4.83;2.87;;;;;;;;;;2566063;23;19916;-96
2023/08/10 05:00:13;;;;;;;3.97;2.63;;;;;;;;;;2550213;23;20078;-96
2023/08/10 05:01:14;;;;;;;4.85;2.38;;;;;;;;;;2533328;23;20009;-94
2023/08/10 05:02:14;;;;;;;3.33;2.67;;;;;;;;;;2534288;23;20005;-95
2023/08/10 05:03:15;;;;;;;6.32;2.95;;;;;;;;;;2554420;23;20159;-93
2023/08/10 05:04:17;;;;;;;5.25;2.42;;;;;;;;;;2555490;23;19993;-93
2023/08/10 05:05:17;;;;;;;7.65;2.65;;;;;;;;;;2560537;23;20013;-91
2023/08/10 05:06:21;;;;;;;3.95;2.78;;;;;;;;;;2556435;23;20008;-93
2023/08/10 05:07:23;;;;;;;2.60;2.40;;;;;;;;;;2543648;23;20096;-96
2023/08/10 05:08:30;;;;;;;4.32;2.45;;;;;;;;;;2530766;23;20051;-96
2023/08/10 05:09:30;;;;;;;3.10;2.45;;;;;;;;;;2515734;23;19998;-93
2023/08/10 05:10:31;;;;;;;3.85;2.28;;;;;;;;;;2533114;23;20001;-95
2023/08/10 05:11:31;;;;;;;5.95;2.60;;;;;;;;;;2532603;23;20033;-93
2023/08/10 05:12:36;;;;;;;4.25;2.20;;;;;;;;;;2533288;23;20012;-93
2023/08/10 05:13:36;;;;;;;3.75;2.53;;;;;;;;;;2533405;23;19998;-94
2023/08/10 05:14:36;;;;;;;5.68;2.50;;;;;;;;;;2535580;23;20016;-93
2023/08/10 05:16:47;;;;;;;3.70;2.30;;;;;;;;;;2540219;23;20099;-93
2023/08/10 05:23:40;;;;;;;6.63;2.20;;;;;;;;;;2563820;23;20446;-94
2023/08/10 05:24:40;;;;;;;3.20;2.00;;;;;;;;;;2545897;23;20011;-94
2023/08/10 05:25:41;;;;;;;4.97;2.15;;;;;;;;;;2550604;23;19997;-94
2023/08/10 05:26:42;;;;;;;4.68;1.80;;;;;;;;;;2546508;23;20046;-93
2023/08/10 05:27:43;;;;;;;4.55;2.22;;;;;;;;;;2550418;23;19989;-93
2023/08/10 05:28:43;;;;;;;3.33;2.05;;;;;;;;;;2545432;23;19989;-93
2023/08/10 05:29:44;;;;;;;3.78;1.80;;;;;;;;;;2548996;23;20082;-93
2023/08/10 05:30:44;;;;;;;3.60;2.10;;;;;;;;;;2545216;23;20021;-95
2023/08/10 05:32:01;;;;;;;5.32;2.28;;;;;;;;;;2550492;23;20040;-93
2023/08/10 05:33:02;;;;;;;4.07;1.65;;;;;;;;;;2544194;23;20023;-93
2023/08/10 05:34:56;;;;;;;3.42;2.25;;;;;;;;;;2550276;23;20001;-93
2023/08/10 05:40:09;;;;;;;4.47;2.30;;;;;;;;;;2513389;23;20426;-92
2023/08/10 05:41:10;;;;;;;4.43;2.35;;;;;;;;;;2496649;23;20007;-94
2023/08/10 05:42:10;;;;;;;8.73;2.30;;;;;;;;;;2484319;23;20004;-94
2023/08/10 05:43:12;;;;;;;5.80;2.33;;;;;;;;;;2511099;23;20069;-92
2023/08/10 05:44:12;;;;;;;5.90;3.00;;;;;;;;;;2533033;23;20024;-93
2023/08/10 05:47:33;;;;;;;4.78;2.72;;;;;;;;;;2558565;23;20013;-92
2023/08/10 05:48:34;;;;;;;4.30;2.50;;;;;;;;;;2546626;23;20064;-92
2023/08/10 05:49:34;;;;;;;5.93;2.80;;;;;;;;;;2532444;23;20101;-92
2023/08/10 05:50:35;;;;;;;4.68;2.63;;;;;;;;;;2532530;23;19998;-92
2023/08/10 05:51:35;;;;;;;6.50;2.80;;;;;;;;;;2545809;23;20025;-93
2023/08/10 05:52:35;;;;;;;7.15;3.13;;;;;;;;;;2532976;23;20017;-92
2023/08/10 05:53:37;;;;;;;6.38;3.00;;;;;;;;;;2548652;23;20466;-93
2023/08/10 05:54:37;;;;;;;8.48;3.15;;;;;;;;;;2544704;23;20052;-91
2023/08/10 05:55:39;;;;;;;4.93;2.83;;;;;;;;;;2110919;23;10248624;-93
2023/08/10 05:56:40;;;;;;;5.68;3.00;;;;;;;;;;2562093;23;19996;-92
2023/08/10 05:57:44;;;;;;;5.03;2.83;;;;;;;;;;2544646;23;19997;-92
2023/08/10 05:58:44;;;;;;;5.13;2.60;;;;;;;;;;2538665;23;20013;-91
2023/08/10 05:59:45;;;;;;;4.15;2.28;;;;;;;;;;2540654;23;20002;-91
2023/08/10 06:00:45;;;;;;;3.75;2.10;;;;;;;;;;2537295;23;19994;-92
2023/08/10 06:01:47;;;;;;;6.55;2.45;;;;;;;;;;2550785;23;20371;-92
2023/08/10 06:02:50;;;;;;;6.20;2.40;;;;;;;;;;2553548;23;19993;-92
2023/08/10 06:03:51;;;;;;;7.25;2.30;;;;;;;;;;2542706;23;19985;-89
2023/08/10 06:06:48;;;;;;;4.57;2.10;;;;;;;;;;2561617;23;20447;-94
2023/08/10 06:08:23;;;;;;;4.43;1.88;;;;;;;;;;2562236;23;20024;-94
2023/08/10 06:09:24;;;;;;;7.00;3.08;;;;;;;;;;2562607;23;20017;-93
2023/08/10 06:10:24;;;;;;;7.28;3.70;;;;;;;;;;2544657;23;20484;-94
2023/08/10 06:11:25;;;;;;;9.73;3.65;;;;;;;;;;2545738;23;20002;-94
2023/08/10 06:12:25;;;;;;;13.15;3.53;;;;;;;;;;2545386;23;20024;-92
2023/08/10 06:13:26;;;;;;;5.97;2.90;;;;;;;;;;2544832;23;20001;-93
2023/08/10 06:14:27;;;;;;;4.15;2.72;;;;;;;;;;2561454;23;19997;-93
2023/08/10 06:15:28;;;;;;;5.25;3.00;;;;;;;;;;2557406;23;19996;-94
2023/08/10 06:16:28;;;;;;;3.30;2.50;;;;;;;;;;2561029;23;20403;-94
2023/08/10 06:17:29;;;;;;;3.67;2.35;;;;;;;;;;2544510;23;20069;-92
2023/08/10 06:22:32;;;;;;;5.68;2.25;;;;;;;;;;2572544;23;20001;-96
2023/08/10 06:23:33;;;;;;;3.58;1.88;;;;;;;;;;2566484;23;20060;-93
2023/08/10 06:24:33;;;;;;;6.40;2.20;;;;;;;;;;2562608;23;19996;-94
2023/08/10 06:25:34;;;;;;;5.35;2.47;;;;;;;;;;2547780;23;20036;-94
2023/08/10 06:26:36;;;;;;;3.83;2.78;;;;;;;;;;2538349;23;19990;-93
2023/08/10 06:27:36;;;;;;;3.22;2.45;;;;;;;;;;2535592;23;19997;-93
2023/08/10 06:28:37;;;;;;;6.15;3.42;;;;;;;;;;2532757;23;20028;-93
2023/08/10 06:29:37;;;;;;;8.85;4.65;;;;;;;;;;2548692;23;20013;-94
2023/08/10 06:30:40;;;;;;;6.68;4.28;;;;;;;;;;2566426;23;19993;-93
2023/08/10 06:31:40;;;;;;;8.05;4.75;;;;;;;;;;2549495;23;20025;-94
2023/08/10 06:32:42;;;;;;;9.65;4.88;;;;;;;;;;2547004;23;20441;-93
2023/08/10 06:33:43;;;;;;;15.50;4.47;;;;;;;;;;2559703;23;20053;-93
2023/08/10 06:34:43;;;;;;;20.75;6.65;;;;;;;;;;2563420;23;20440;-92
2023/08/10 06:35:50;;;;;;;18.98;6.35;;;;;;;;;;2564445;23;19989;-93
2023/08/10 06:38:47;;;;;;;12.40;5.68;;;;;;;;;;2562808;23;20513;-91
2023/08/10 06:39:53;;;;;;;13.27;6.50;;;;;;;;;;2562672;23;20009;-92
2023/08/10 06:40:54;;;;;;;16.30;7.38;;;;;;;;;;2548152;23;20017;-93
2023/08/10 06:41:54;;;;;;;13.18;7.93;;;;;;;;;;2538961;23;20028;-94
2023/08/10 06:43:18;;;;;;;;;;;;;;;;;;;;;